Time;durP1;ratioP1;P1;durP2;ratioP2;P2;SDS_P1;SDS_P2;PMS_P1;PMS_P2;Temp;Humidity;BMP_temperature;BMP_pressure;BME280_temperature;BME280_humidity;BME280_pressure;Samples;Min_cycle;Max_cycle;Signal;HPM_P1;HPM_P2
2021/01/11 00:00:23;;;;;;;1.3;1.2;;;;;;;-6.16;73.28223;940.3837;;;;
2021/01/11 00:02:48;;;;;;;1.8;1.7;;;;;;;-6.24;73.91504;940.3644;;;;
2021/01/11 00:05:13;;;;;;;1.9;1.6;;;;;;;-6.27;73.99707;940.356;;;;
2021/01/11 00:07:38;;;;;;;2.5;1.6;;;;;;;-6.29;73.81836;940.3975;;;;
2021/01/11 00:10:04;;;;;;;3;1.8;;;;;;;-6.3;73.07031;940.3563;;;;
2021/01/11 00:12:29;;;;;;;3.3;1.9;;;;;;;-6.18;72.72852;940.3358;;;;
2021/01/11 00:14:54;;;;;;;3;1.7;;;;;;;-6.23;72.8418;940.3627;;;;
2021/01/11 00:17:19;;;;;;;3.4;1.7;;;;;;;-6.2;72.95605;940.2977;;;;
2021/01/11 00:19:44;;;;;;;2.9;1.5;;;;;;;-6.27;72.77832;940.3292;;;;
2021/01/11 00:22:09;;;;;;;2.7;1.4;;;;;;;-6.43;73.44141;940.2888;;;;
2021/01/11 00:24:34;;;;;;;2.4;2;;;;;;;-6.45;73.75781;940.3284;;;;
2021/01/11 00:26:59;;;;;;;2.2;2;;;;;;;-6.67;74.95703;940.367;;;;
2021/01/11 00:29:25;;;;;;;6.8;2.2;;;;;;;-6.72;75.40918;940.3539;;;;
2021/01/11 00:31:50;;;;;;;8.2;2.8;;;;;;;-6.77;75.66406;940.3025;;;;
2021/01/11 00:34:16;;;;;;;5.4;2.3;;;;;;;-6.75;75.49121;940.3071;;;;
2021/01/11 00:36:42;;;;;;;6.5;2.6;;;;;;;-6.84;75.66016;940.2115;;;;
2021/01/11 00:39:06;;;;;;;3;1.8;;;;;;;-6.87;75.70801;940.228;;;;
2021/01/11 00:41:31;;;;;;;2.1;1.8;;;;;;;-6.9;75.69238;940.2065;;;;
2021/01/11 00:43:56;;;;;;;4.4;2.2;;;;;;;-6.99;75.90527;940.248;;;;
2021/01/11 00:46:22;;;;;;;4.6;2.3;;;;;;;-7.03;76.00879;940.2899;;;;
2021/01/11 00:48:47;;;;;;;3.8;2;;;;;;;-7.22;76.30273;940.226;;;;
2021/01/11 00:51:12;;;;;;;2.3;1.1;;;;;;;-7.33;76.79688;940.3128;;;;
2021/01/11 00:53:37;;;;;;;3.4;2.2;;;;;;;-7.49;77.12793;940.3281;;;;
2021/01/11 00:56:02;;;;;;;2.5;1.9;;;;;;;-7.46;77.1123;940.35;;;;
2021/01/11 00:58:27;;;;;;;2;1.7;;;;;;;-7.51;76.97168;940.3429;;;;
2021/01/11 01:00:52;;;;;;;2.3;1.7;;;;;;;-7.56;77.01758;940.3945;;;;
2021/01/11 01:03:18;;;;;;;3.5;2.4;;;;;;;-7.87;77.7002;940.2855;;;;
2021/01/11 01:05:43;;;;;;;2.8;2;;;;;;;-7.97;78.59082;940.3957;;;;
2021/01/11 01:08:08;;;;;;;4.2;2.2;;;;;;;-7.83;78.31055;940.3999;;;;
2021/01/11 01:10:33;;;;;;;3.5;2.1;;;;;;;-7.8;78.01074;940.3474;;;;
2021/01/11 01:12:58;;;;;;;3.3;2;;;;;;;-7.86;78.0752;940.4391;;;;
2021/01/11 01:15:24;;;;;;;2.7;1.3;;;;;;;-7.94;78.45508;940.5098;;;;
2021/01/11 01:17:49;;;;;;;2.5;1.7;;;;;;;-8.01;78.58203;940.5383;;;;
2021/01/11 01:20:16;;;;;;;4;1.2;;;;;;;-8.04;78.64453;940.5872;;;;
2021/01/11 01:22:39;;;;;;;4.2;1.9;;;;;;;-8.09;78.56836;940.6295;;;;
2021/01/11 01:25:04;;;;;;;4.2;1.9;;;;;;;-8.18;78.47461;940.6631;;;;
2021/01/11 01:27:29;;;;;;;7.4;3;;;;;;;-8.26;78.44824;940.6506;;;;
2021/01/11 01:29:56;;;;;;;3.1;2;;;;;;;-8.19;78.25488;940.6635;;;;
2021/01/11 01:32:19;;;;;;;7;2;;;;;;;-8.11;77.99512;940.7143;;;;
2021/01/11 01:34:45;;;;;;;1.8;1.7;;;;;;;-8.07;77.70898;940.6425;;;;
2021/01/11 01:37:10;;;;;;;3.5;1.9;;;;;;;-8.17;78.32324;940.7042;;;;
2021/01/11 01:39:35;;;;;;;2.5;1.5;;;;;;;-8.22;78.70703;940.635;;;;
2021/01/11 01:42:00;;;;;;;2;1.5;;;;;;;-8.01;78.05762;940.7119;;;;
2021/01/11 01:44:25;;;;;;;3;1.7;;;;;;;-7.89;77.02148;940.7112;;;;
2021/01/11 01:46:51;;;;;;;1.6;1.5;;;;;;;-7.95;76.47363;940.699;;;;
2021/01/11 01:49:16;;;;;;;6.8;2.7;;;;;;;-8.1;76.59961;940.7064;;;;
2021/01/11 01:51:41;;;;;;;2;1.9;;;;;;;-8.18;76.87793;940.6819;;;;
2021/01/11 01:54:06;;;;;;;4.4;1.9;;;;;;;-8.18;76.87793;940.6488;;;;
2021/01/11 01:56:31;;;;;;;2.5;1.7;;;;;;;-8.21;76.88574;940.6158;;;;
2021/01/11 01:58:56;;;;;;;3.3;1.8;;;;;;;-8.24;76.79199;940.63;;;;
2021/01/11 02:01:21;;;;;;;8.5;1.6;;;;;;;-8.35;76.94629;940.5677;;;;
2021/01/11 02:03:48;;;;;;;2.3;1.5;;;;;;;-8.46;77.19922;940.5751;;;;
2021/01/11 02:06:11;;;;;;;8.3;2.1;;;;;;;-8.6;78.08887;940.5355;;;;
2021/01/11 02:08:37;;;;;;;3;1.8;;;;;;;-8.53;77.82031;940.4473;;;;
2021/01/11 02:11:02;;;;;;;2.8;2;;;;;;;-8.54;77.61914;940.5253;;;;
2021/01/11 02:13:27;;;;;;;1.6;1.4;;;;;;;-8.54;77.28027;940.5083;;;;
2021/01/11 02:15:52;;;;;;;2.1;1.4;;;;;;;-8.6;77.25977;940.447;;;;
2021/01/11 02:18:17;;;;;;;1.9;1.6;;;;;;;-8.54;77.21484;940.5067;;;;
2021/01/11 02:20:42;;;;;;;1.7;1.6;;;;;;;-8.6;77.18262;940.3343;;;;
2021/01/11 02:23:08;;;;;;;3.5;1.3;;;;;;;-8.62;77.19043;940.4343;;;;
2021/01/11 02:25:33;;;;;;;1.3;1.2;;;;;;;-8.67;77.19141;940.4558;;;;
2021/01/11 02:27:58;;;;;;;3.9;1.8;;;;;;;-8.68;77.08203;940.4374;;;;
2021/01/11 02:30:23;;;;;;;3.1;1;;;;;;;-8.69;76.80469;940.3837;;;;
2021/01/11 02:32:48;;;;;;;3.8;1.8;;;;;;;-8.82;76.77148;940.4263;;;;
2021/01/11 02:35:13;;;;;;;2.8;2.1;;;;;;;-8.87;76.77051;940.3429;;;;
2021/01/11 02:37:39;;;;;;;0.8;0.8;;;;;;;-8.93;76.93652;940.3419;;;;
2021/01/11 02:40:03;;;;;;;1.3;1.2;;;;;;;-9.24;77.9043;940.3279;;;;
2021/01/11 02:42:29;;;;;;;1.2;1.1;;;;;;;-9.29;78.01367;940.4428;;;;
2021/01/11 02:44:54;;;;;;;4.2;1.5;;;;;;;-9.28;78.04785;940.4041;;;;
2021/01/11 02:47:19;;;;;;;2.1;1.6;;;;;;;-9.47;78.71973;940.288;;;;
2021/01/11 02:49:45;;;;;;;2.5;1.7;;;;;;;-9.51;79.1582;940.2152;;;;
2021/01/11 02:52:10;;;;;;;5.4;1.5;;;;;;;-9.57;78.80957;940.3209;;;;
2021/01/11 02:54:35;;;;;;;3.5;1.3;;;;;;;-9.83;80.21777;940.2944;;;;
2021/01/11 02:57:00;;;;;;;1.2;1.1;;;;;;;-9.76;80.59961;940.2623;;;;
2021/01/11 02:59:25;;;;;;;3;1.9;;;;;;;-9.57;80.38867;940.2336;;;;
2021/01/11 03:01:50;;;;;;;1.7;1;;;;;;;-9.35;79.77734;940.2161;;;;
2021/01/11 03:04:17;;;;;;;2.2;1.4;;;;;;;-9.28;79.2334;940.1677;;;;
2021/01/11 03:06:41;;;;;;;1.6;1.4;;;;;;;-9.34;79.35547;940.2406;;;;
2021/01/11 03:09:07;;;;;;;2.8;2.3;;;;;;;-9.38;79.43262;940.2449;;;;
2021/01/11 03:11:32;;;;;;;2.5;2;;;;;;;-9.31;79.27246;940.257;;;;
2021/01/11 03:13:57;;;;;;;1.8;1.4;;;;;;;-9.12;78.8418;940.2444;;;;
2021/01/11 03:16:22;;;;;;;1.8;1.3;;;;;;;-8.91;77.99805;940.2299;;;;
2021/01/11 03:18:47;;;;;;;5.4;2.5;;;;;;;-8.87;77.1543;940.1618;;;;
2021/01/11 03:21:12;;;;;;;1.9;1.6;;;;;;;-8.96;76.7998;940.259;;;;
2021/01/11 03:23:37;;;;;;;7.2;2.3;;;;;;;-9.07;76.75781;940.2751;;;;
2021/01/11 03:26:02;;;;;;;1.7;1.6;;;;;;;-9.18;76.79199;940.2512;;;;
2021/01/11 03:28:27;;;;;;;2.9;1.6;;;;;;;-9.29;77.3252;940.2892;;;;
2021/01/11 03:30:52;;;;;;;1.5;1.3;;;;;;;-9.29;77.3584;940.2676;;;;
2021/01/11 03:33:17;;;;;;;3.2;2.1;;;;;;;-9.23;77.92773;940.2064;;;;
2021/01/11 03:35:43;;;;;;;5.1;2.1;;;;;;;-9.22;77.53711;940.1877;;;;
2021/01/11 03:38:08;;;;;;;2.4;1.3;;;;;;;-9.28;77.49023;940.18;;;;
2021/01/11 03:40:33;;;;;;;2.1;1.9;;;;;;;-9.52;78.1543;940.0845;;;;
2021/01/11 03:42:58;;;;;;;3.4;1.5;;;;;;;-9.49;78.49902;940.1071;;;;
2021/01/11 03:45:23;;;;;;;2.1;1.3;;;;;;;-9.48;78.21777;940.0313;;;;
2021/01/11 03:47:48;;;;;;;2.1;1.9;;;;;;;-9.66;78.75977;940.1314;;;;
2021/01/11 03:50:13;;;;;;;1.6;1.5;;;;;;;-9.52;78.6875;940.1508;;;;
2021/01/11 03:52:38;;;;;;;2.1;1.9;;;;;;;-9.44;78.31152;940.1583;;;;
2021/01/11 03:55:03;;;;;;;4.5;1.9;;;;;;;-9.47;78.27344;940.1135;;;;
2021/01/11 03:57:28;;;;;;;1.5;1.4;;;;;;;-9.35;77.62012;940.1401;;;;
2021/01/11 03:59:53;;;;;;;3.8;2.3;;;;;;;-9.41;77.10742;940.076;;;;
2021/01/11 04:02:30;;;;;;;1.7;1.4;;;;;;;-9.73;77.81055;940.0971;;;;
2021/01/11 04:04:55;;;;;;;3.8;2;;;;;;;-9.89;78.41211;940.0764;;;;
2021/01/11 04:07:20;;;;;;;1.2;1.1;;;;;;;-9.97;78.90625;940.0715;;;;
2021/01/11 04:09:45;;;;;;;2.6;1.7;;;;;;;-9.98;78.97168;940.0747;;;;
2021/01/11 04:12:10;;;;;;;6.2;2;;;;;;;-10.02;79.11328;940.0812;;;;
2021/01/11 04:14:35;;;;;;;7.4;3.2;;;;;;;-10.05;78.92285;940.1155;;;;
2021/01/11 04:17:00;;;;;;;6;2;;;;;;;-10.21;79.52246;940.1176;;;;
2021/01/11 04:19:26;;;;;;;1.5;1.4;;;;;;;-10.24;79.79102;940.0686;;;;
2021/01/11 04:21:51;;;;;;;2.7;2;;;;;;;-10.25;80.12402;940.0868;;;;
2021/01/11 04:24:16;;;;;;;1.3;1.2;;;;;;;-10.13;79.80078;939.9888;;;;
2021/01/11 04:26:41;;;;;;;1.2;1.1;;;;;;;-9.96;79.09473;940.1303;;;;
2021/01/11 04:29:06;;;;;;;2;1.8;;;;;;;-9.92;78.54688;940.1448;;;;
2021/01/11 04:31:31;;;;;;;3;1.8;;;;;;;-9.86;78.12207;940.1788;;;;
2021/01/11 04:33:56;;;;;;;3.7;2;;;;;;;-9.93;77.81641;940.2645;;;;
2021/01/11 04:36:22;;;;;;;1.5;1.2;;;;;;;-9.9;77.57129;940.1351;;;;
2021/01/11 04:38:47;;;;;;;2.3;1.9;;;;;;;-9.93;77.88184;940.2974;;;;
2021/01/11 04:41:13;;;;;;;1.9;1.2;;;;;;;-9.98;78.03613;940.296;;;;
2021/01/11 04:43:37;;;;;;;3.5;2;;;;;;;-9.94;78.25879;940.2642;;;;
2021/01/11 04:46:03;;;;;;;2.5;1.8;;;;;;;-10.06;78.48828;940.3136;;;;
2021/01/11 04:48:28;;;;;;;2.7;2;;;;;;;-9.92;78.17676;940.2977;;;;
2021/01/11 04:50:53;;;;;;;5.1;2.4;;;;;;;-9.83;77.71484;940.3067;;;;
2021/01/11 04:53:18;;;;;;;2;1.8;;;;;;;-9.8;77.30859;940.2809;;;;
2021/01/11 04:55:43;;;;;;;2.7;1.3;;;;;;;-9.84;77.11328;940.3222;;;;
2021/01/11 04:58:08;;;;;;;1;1;;;;;;;-10.01;77.26758;940.1799;;;;
2021/01/11 05:00:34;;;;;;;2.7;1.5;;;;;;;-10.07;77.32129;940.3005;;;;
2021/01/11 05:02:59;;;;;;;1.3;1.2;;;;;;;-10.32;78.13281;940.1903;;;;
2021/01/11 05:05:24;;;;;;;2.8;2.3;;;;;;;-10.39;79.19434;940.1778;;;;
2021/01/11 05:07:49;;;;;;;1.3;1.1;;;;;;;-10.41;79.04004;940.1744;;;;
2021/01/11 05:10:14;;;;;;;2.9;2.1;;;;;;;-10.48;79.71094;940.2432;;;;
2021/01/11 05:12:40;;;;;;;2.2;1.5;;;;;;;-10.38;79.57813;940.2224;;;;
2021/01/11 05:15:05;;;;;;;1.3;1.2;;;;;;;-10.32;79.64258;940.1749;;;;
2021/01/11 05:17:30;;;;;;;4.9;2.3;;;;;;;-10.23;79.46484;940.2067;;;;
2021/01/11 05:19:55;;;;;;;8.8;1.8;;;;;;;-10.12;79.05273;940.1507;;;;
2021/01/11 05:22:21;;;;;;;3.1;1.4;;;;;;;-10.09;78.68652;940.058;;;;
2021/01/11 05:24:46;;;;;;;1.9;1.7;;;;;;;-10.16;78.37109;940.0701;;;;
2021/01/11 05:27:11;;;;;;;1.5;1.3;;;;;;;-10.27;78.78418;940.2106;;;;
2021/01/11 05:29:36;;;;;;;1.3;1.2;;;;;;;-10.26;79.18945;940.2305;;;;
2021/01/11 05:32:01;;;;;;;2.1;1.6;;;;;;;-10.2;79.13477;940.2534;;;;
2021/01/11 05:34:26;;;;;;;1.9;1.3;;;;;;;-10.16;79.05664;940.2949;;;;
2021/01/11 05:36:51;;;;;;;1.7;1.6;;;;;;;-10.18;79.38965;940.2742;;;;
2021/01/11 05:39:17;;;;;;;2.3;1.8;;;;;;;-10.06;79.10645;940.307;;;;
2021/01/11 05:41:41;;;;;;;8.5;2.7;;;;;;;-10.1;78.88184;940.2377;;;;
2021/01/11 05:44:06;;;;;;;2.9;2.1;;;;;;;-10.06;78.92285;940.3198;;;;
2021/01/11 05:46:32;;;;;;;4.3;2.4;;;;;;;-9.97;78.49316;940.3364;;;;
2021/01/11 05:48:58;;;;;;;4.3;3.1;;;;;;;-9.89;78.35742;940.2813;;;;
2021/01/11 05:51:22;;;;;;;2.9;2;;;;;;;-9.84;78.0293;940.2288;;;;
2021/01/11 05:53:47;;;;;;;3.3;2.6;;;;;;;-9.77;77.66211;940.3133;;;;
2021/01/11 05:56:12;;;;;;;4.1;3.3;;;;;;;-9.78;77.48438;940.35;;;;
2021/01/11 05:58:37;;;;;;;4;2.4;;;;;;;-9.99;77.19531;940.4126;;;;
2021/01/11 06:01:03;;;;;;;7.3;3.4;;;;;;;-10.04;77.32617;940.4289;;;;
2021/01/11 06:03:28;;;;;;;3.1;1.9;;;;;;;-10.09;77.23145;940.3875;;;;
2021/01/11 06:05:53;;;;;;;2.5;2;;;;;;;-10.2;77.80859;940.3836;;;;
2021/01/11 06:08:18;;;;;;;3.2;2.8;;;;;;;-10.22;77.76172;940.3666;;;;
2021/01/11 06:10:44;;;;;;;2.3;1.9;;;;;;;-10.28;78.04297;940.396;;;;
2021/01/11 06:13:09;;;;;;;6.4;4;;;;;;;-10.49;79.09961;940.365;;;;
2021/01/11 06:15:33;;;;;;;4.6;2.5;;;;;;;-10.43;79.13281;940.3104;;;;
2021/01/11 06:17:58;;;;;;;3.7;3;;;;;;;-10.41;79.60547;940.3722;;;;
2021/01/11 06:20:23;;;;;;;11.3;4.3;;;;;;;-10.38;78.98047;940.3696;;;;
2021/01/11 06:22:48;;;;;;;2.3;1.5;;;;;;;-10.49;79.27246;940.4127;;;;
2021/01/11 06:25:13;;;;;;;1.6;1.5;;;;;;;-10.45;79.35742;940.4403;;;;
2021/01/11 06:27:39;;;;;;;2.1;1.5;;;;;;;-10.41;79.30078;940.4561;;;;
2021/01/11 06:30:04;;;;;;;5.1;3;;;;;;;-10.3;78.89648;940.4979;;;;
2021/01/11 06:32:29;;;;;;;7;3.7;;;;;;;-10.19;78.83203;940.4807;;;;
2021/01/11 06:34:55;;;;;;;6.1;3.9;;;;;;;-10.13;79.01855;940.4506;;;;
2021/01/11 06:37:19;;;;;;;8.2;5.5;;;;;;;-10.08;78.75488;940.4155;;;;
2021/01/11 06:39:45;;;;;;;6.4;4.6;;;;;;;-10.22;78.99023;940.5369;;;;
2021/01/11 06:42:10;;;;;;;6.5;3.3;;;;;;;-10.26;79.77637;940.5256;;;;
2021/01/11 06:44:35;;;;;;;10.6;4.2;;;;;;;-10.15;79.81738;940.5714;;;;
2021/01/11 06:47:00;;;;;;;3.1;2.8;;;;;;;-9.96;79.04883;940.5811;;;;
2021/01/11 06:49:25;;;;;;;8.5;4;;;;;;;-9.76;78.2168;940.625;;;;
2021/01/11 06:51:51;;;;;;;4.9;3.5;;;;;;;-9.89;77.59668;940.6386;;;;
2021/01/11 06:54:15;;;;;;;10;3.3;;;;;;;-9.88;77.30273;940.6914;;;;
2021/01/11 06:56:40;;;;;;;3.6;2.8;;;;;;;-9.96;77.08203;940.73;;;;
2021/01/11 06:59:06;;;;;;;1.8;1.6;;;;;;;-10.01;76.65918;940.6559;;;;
2021/01/11 07:01:31;;;;;;;3.3;2;;;;;;;-10.03;76.46875;940.687;;;;
2021/01/11 07:03:56;;;;;;;3.7;2.9;;;;;;;-10;76.51953;940.7054;;;;
2021/01/11 07:06:21;;;;;;;4.8;3;;;;;;;-10.26;76.55762;940.7467;;;;
2021/01/11 07:08:46;;;;;;;4.1;2.9;;;;;;;-10.23;76.89063;940.6972;;;;
2021/01/11 07:11:11;;;;;;;4.3;2.2;;;;;;;-10.3;77.36426;940.68;;;;
2021/01/11 07:13:36;;;;;;;4.3;2.2;;;;;;;-10.09;77.0459;940.7858;;;;
2021/01/11 07:16:03;;;;;;;2.3;1.6;;;;;;;-10.12;76.99609;940.6661;;;;
2021/01/11 07:18:26;;;;;;;2.5;2.2;;;;;;;-10.15;77.03613;940.8014;;;;
2021/01/11 07:20:52;;;;;;;2.6;1.9;;;;;;;-10.09;77.66602;940.7924;;;;
2021/01/11 07:23:17;;;;;;;5.1;2.6;;;;;;;-10.02;77.73438;940.928;;;;
2021/01/11 07:25:42;;;;;;;3.7;1.8;;;;;;;-9.93;77.94531;940.9232;;;;
2021/01/11 07:28:07;;;;;;;4.1;3.3;;;;;;;-9.99;77.32617;940.8684;;;;
2021/01/11 07:30:35;;;;;;;3.5;2.1;;;;;;;-9.94;77.40137;940.9998;;;;
2021/01/11 07:32:57;;;;;;;7.6;2.7;;;;;;;-9.77;77.13965;940.8987;;;;
2021/01/11 07:35:22;;;;;;;3.6;2.5;;;;;;;-9.62;76.27539;941.063;;;;
2021/01/11 07:37:47;;;;;;;13.8;4.5;;;;;;;-9.5;75.49023;941.1172;;;;
2021/01/11 07:40:13;;;;;;;22.7;10.8;;;;;;;-9.67;75.24219;941.0037;;;;
2021/01/11 07:42:38;;;;;;;40.7;15.8;;;;;;;-9.57;75.46777;941.0606;;;;
2021/01/11 07:45:03;;;;;;;5;2.4;;;;;;;-9.56;75.33887;940.9861;;;;
2021/01/11 07:47:28;;;;;;;6.7;3.9;;;;;;;-9.46;75.0957;941.0838;;;;
2021/01/11 07:49:53;;;;;;;2.4;2.1;;;;;;;-9.12;74.90723;941.0895;;;;
2021/01/11 07:52:18;;;;;;;4.6;2;;;;;;;-8.49;74.22363;941.1088;;;;
2021/01/11 07:54:44;;;;;;;3.2;2.3;;;;;;;-8.1;71.03906;941.0689;;;;
2021/01/11 07:57:08;;;;;;;4.2;3.2;;;;;;;-7.28;68.58398;940.9036;;;;
2021/01/11 07:59:33;;;;;;;3.6;2.9;;;;;;;-6.33;64.89063;940.9458;;;;
2021/01/11 08:01:58;;;;;;;5.9;3.7;;;;;;;-6.33;62.3457;941.0059;;;;
2021/01/11 08:04:24;;;;;;;4;2.7;;;;;;;-6.69;62.54297;940.9725;;;;
2021/01/11 08:06:49;;;;;;;3.2;2.4;;;;;;;-6.98;62.95801;940.937;;;;
2021/01/11 08:09:14;;;;;;;3.5;2.6;;;;;;;-6.87;62.82324;941.0333;;;;
2021/01/11 08:11:39;;;;;;;3.5;2.4;;;;;;;-6.73;62.2832;941.017;;;;
2021/01/11 08:14:04;;;;;;;2.9;2.1;;;;;;;-6.42;61.54199;940.9883;;;;
2021/01/11 08:16:29;;;;;;;3;1.7;;;;;;;-5.99;60.7373;940.983;;;;
2021/01/11 08:18:54;;;;;;;3.1;2.1;;;;;;;-5.4;59.09668;941.0315;;;;
2021/01/11 08:21:20;;;;;;;2.9;2.1;;;;;;;-4.64;56.67188;941.0388;;;;
2021/01/11 08:23:45;;;;;;;8.4;5.8;;;;;;;-4.09;55.19043;941.0272;;;;
2021/01/11 08:26:10;;;;;;;9;3.5;;;;;;;-3.09;52.98828;941.0229;;;;
2021/01/11 08:28:35;;;;;;;6.1;3.8;;;;;;;-2.34;50.37109;941.0168;;;;
2021/01/11 08:31:01;;;;;;;12.4;4.8;;;;;;;-2.09;49.7793;940.9518;;;;
2021/01/11 08:33:25;;;;;;;10.9;2.7;;;;;;;-1.64;48.23438;940.9338;;;;
2021/01/11 08:35:51;;;;;;;5;2.9;;;;;;;-1.14;47.15918;940.9793;;;;
2021/01/11 08:38:15;;;;;;;29.4;3.2;;;;;;;-1.34;46.89258;940.9895;;;;
2021/01/11 08:40:45;;;;;;;7.8;3.8;;;;;;;-0.61;45.98438;940.9825;;;;
2021/01/11 08:43:06;;;;;;;11.4;4;;;;;;;0.28;43.36133;941.0253;;;;
2021/01/11 08:45:32;;;;;;;7.9;3.1;;;;;;;0.84;41.84375;941.0167;;;;
2021/01/11 08:47:57;;;;;;;9.2;3.6;;;;;;;0.84;42.34766;941.0505;;;;
2021/01/11 08:50:22;;;;;;;6.6;3.2;;;;;;;2.19;40.26465;941.0455;;;;
2021/01/11 08:52:48;;;;;;;10.1;4.4;;;;;;;2.36;39.7998;941.0684;;;;
2021/01/11 08:55:14;;;;;;;7.5;4.9;;;;;;;2.09;39.42676;941.0472;;;;
2021/01/11 08:57:38;;;;;;;8.7;4;;;;;;;1.33;40.43945;941.1102;;;;
2021/01/11 09:00:03;;;;;;;3.9;2.4;;;;;;;-0.9;44.49512;941.2344;;;;
2021/01/11 09:02:28;;;;;;;4.7;2.4;;;;;;;-1.89;47.04102;941.2708;;;;
2021/01/11 09:04:53;;;;;;;3.4;2.4;;;;;;;-2.43;48.53125;941.2703;;;;
2021/01/11 09:07:18;;;;;;;2.7;1.9;;;;;;;-3.23;50.76074;941.3057;;;;
2021/01/11 09:09:43;;;;;;;4.2;3;;;;;;;-3.55;52.16797;941.338;;;;
2021/01/11 09:12:09;;;;;;;2.9;1.9;;;;;;;-4.55;55.74609;941.3756;;;;
2021/01/11 09:14:34;;;;;;;4.5;2.2;;;;;;;-4.71;56.87012;941.4409;;;;
2021/01/11 09:16:59;;;;;;;7;1.6;;;;;;;-5.45;59.69434;941.3795;;;;
2021/01/11 09:19:24;;;;;;;4.5;2.3;;;;;;;-5.47;60.13184;941.3904;;;;
2021/01/11 09:21:49;;;;;;;3.1;2.4;;;;;;;-5.33;60.22852;941.3926;;;;
2021/01/11 09:24:14;;;;;;;3.4;2.5;;;;;;;-5.12;59.99609;941.3109;;;;
2021/01/11 09:26:39;;;;;;;9.2;2.5;;;;;;;-5.07;60.40918;941.4011;;;;
2021/01/11 09:29:04;;;;;;;3.4;2.6;;;;;;;-5.16;61.06738;941.2974;;;;
2021/01/11 09:31:29;;;;;;;2.5;2;;;;;;;-5.57;62.68945;941.3342;;;;
2021/01/11 09:33:55;;;;;;;3.7;2.4;;;;;;;-5.69;63.57227;941.3328;;;;
2021/01/11 09:36:21;;;;;;;3.8;2.4;;;;;;;-5.73;64.06055;941.2848;;;;
2021/01/11 09:38:45;;;;;;;1.6;1.5;;;;;;;-5.88;63.69727;941.3212;;;;
2021/01/11 09:41:12;;;;;;;1.8;1.6;;;;;;;-6.12;64.72461;941.2983;;;;
2021/01/11 09:43:35;;;;;;;3.4;2.5;;;;;;;-6.24;65.06934;941.2693;;;;
2021/01/11 09:46:01;;;;;;;12.2;3.1;;;;;;;-6.54;66.2627;941.1533;;;;
2021/01/11 09:48:26;;;;;;;1.4;1.3;;;;;;;-6.65;66.74805;941.2605;;;;
2021/01/11 09:50:51;;;;;;;3;1.8;;;;;;;-6.78;67.5918;941.106;;;;
2021/01/11 09:53:16;;;;;;;2;1.7;;;;;;;-6.81;68.14648;941.2523;;;;
2021/01/11 09:55:41;;;;;;;6.2;2.3;;;;;;;-6.64;68.04297;941.217;;;;
2021/01/11 09:58:06;;;;;;;5.5;3;;;;;;;-6.46;67.34863;941.2308;;;;
2021/01/11 10:00:32;;;;;;;6.7;3.2;;;;;;;-6.51;66.43066;941.2305;;;;
2021/01/11 10:02:57;;;;;;;3.3;1.9;;;;;;;-6.56;66.54297;941.234;;;;
2021/01/11 10:05:22;;;;;;;2.5;1.8;;;;;;;-6.29;66.9707;941.1443;;;;
2021/01/11 10:07:47;;;;;;;1.6;1.5;;;;;;;-6.28;65.53418;941.1269;;;;
2021/01/11 10:10:12;;;;;;;2.4;1.7;;;;;;;-6.22;64.78613;941.0076;;;;
2021/01/11 10:12:37;;;;;;;6.7;4;;;;;;;-6.11;66.11035;940.9249;;;;
2021/01/11 10:15:03;;;;;;;3.2;1.6;;;;;;;-6.12;64.6377;940.8848;;;;
2021/01/11 10:17:29;;;;;;;12.5;1.8;;;;;;;-5.96;64.47656;940.9453;;;;
2021/01/11 10:19:53;;;;;;;3.8;2;;;;;;;-5.75;63.24414;940.8315;;;;
2021/01/11 10:22:18;;;;;;;5.8;2.1;;;;;;;-5.62;63.1875;940.8561;;;;
2021/01/11 10:24:48;;;;;;;5.9;2.1;;;;;;;-5.25;62.72559;940.8381;;;;
2021/01/11 10:27:08;;;;;;;6.9;2;;;;;;;-5.18;62.24219;940.7715;;;;
2021/01/11 10:29:33;;;;;;;5.7;1.6;;;;;;;-5;61.0127;940.8332;;;;
2021/01/11 10:31:58;;;;;;;6.9;2;;;;;;;-4.86;60.98047;940.7261;;;;
2021/01/11 10:34:24;;;;;;;6.5;3.5;;;;;;;-4.84;61.01465;940.7551;;;;
2021/01/11 10:36:49;;;;;;;4.5;1.5;;;;;;;-4.79;61.03516;940.7339;;;;
2021/01/11 10:39:14;;;;;;;21.8;3.5;;;;;;;-4.71;60.6377;940.7292;;;;
2021/01/11 10:41:39;;;;;;;1;0.9;;;;;;;-4.53;61.19336;940.7092;;;;
2021/01/11 10:44:04;;;;;;;3.3;1.5;;;;;;;-4.5;60.65723;940.6326;;;;
2021/01/11 10:46:29;;;;;;;2.4;1.8;;;;;;;-4.31;60.11133;940.5995;;;;
2021/01/11 10:48:55;;;;;;;2.6;1.4;;;;;;;-4.15;60.04688;940.6074;;;;
2021/01/11 10:51:22;;;;;;;1.6;1.2;;;;;;;-3.95;60.22949;940.5533;;;;
2021/01/11 10:53:46;;;;;;;1.8;1.5;;;;;;;-3.85;59.82422;940.4554;;;;
2021/01/11 10:56:11;;;;;;;3.1;1.8;;;;;;;-3.78;59.85742;940.4827;;;;
2021/01/11 10:58:36;;;;;;;4.1;1.7;;;;;;;-3.68;59.49609;940.5413;;;;
2021/01/11 11:01:02;;;;;;;3.2;2.1;;;;;;;-3.64;58.83984;940.532;;;;
2021/01/11 11:03:27;;;;;;;4.5;1.9;;;;;;;-3.67;60.28223;940.5008;;;;
2021/01/11 11:05:52;;;;;;;8.7;3.1;;;;;;;-3.8;61.22363;940.4922;;;;
2021/01/11 11:08:17;;;;;;;4.6;2.9;;;;;;;-3.77;61.29199;940.4742;;;;
2021/01/11 11:10:42;;;;;;;4.3;2.6;;;;;;;-4.01;61.33496;940.4255;;;;
2021/01/11 11:13:07;;;;;;;2.7;1.9;;;;;;;-4.23;62.43945;940.432;;;;
2021/01/11 11:15:32;;;;;;;4.4;2.7;;;;;;;-4.08;62.12988;940.3661;;;;
2021/01/11 11:18:02;;;;;;;2.6;1.9;;;;;;;-4.12;62.10352;940.402;;;;
2021/01/11 11:20:27;;;;;;;8.6;2.3;;;;;;;-4.15;61.81152;940.3797;;;;
2021/01/11 11:22:53;;;;;;;3.3;1.6;;;;;;;-4.18;61.62988;940.3851;;;;
2021/01/11 11:25:17;;;;;;;1.5;1.4;;;;;;;-4.01;62.16211;940.3664;;;;
2021/01/11 11:27:42;;;;;;;2.9;1.9;;;;;;;-3.96;61.68457;940.3642;;;;
2021/01/11 11:30:07;;;;;;;2.7;1.7;;;;;;;-3.97;61.5293;940.2808;;;;
2021/01/11 11:32:34;;;;;;;2.5;2.1;;;;;;;-3.85;61.22656;940.2144;;;;
2021/01/11 11:34:57;;;;;;;4.8;1.9;;;;;;;-3.77;61.48145;940.2117;;;;
2021/01/11 11:37:23;;;;;;;2.4;2.1;;;;;;;-3.8;61.43164;940.1372;;;;
2021/01/11 11:39:48;;;;;;;2.7;1.9;;;;;;;-3.79;60.9707;940.0339;;;;
2021/01/11 11:42:13;;;;;;;2.8;2.1;;;;;;;-3.74;60.49316;940.017;;;;
2021/01/11 11:44:38;;;;;;;2.3;1.5;;;;;;;-3.64;59.77734;939.9886;;;;
2021/01/11 11:47:04;;;;;;;2.8;2;;;;;;;-3.56;59.44727;939.8942;;;;
2021/01/11 11:49:29;;;;;;;1.7;1.4;;;;;;;-3.63;59.38086;939.815;;;;
2021/01/11 11:51:54;;;;;;;1.6;1.3;;;;;;;-3.59;59.72949;939.7529;;;;
2021/01/11 11:54:19;;;;;;;7.6;1.9;;;;;;;-3.77;59.8916;939.65;;;;
2021/01/11 11:56:44;;;;;;;6.5;2.6;;;;;;;-3.65;59.38867;939.6186;;;;
2021/01/11 11:59:10;;;;;;;2.5;1.8;;;;;;;-3.47;59.29199;939.5865;;;;
2021/01/11 12:01:35;;;;;;;5.2;2.5;;;;;;;-3.44;58.68945;939.4983;;;;
2021/01/11 12:04:00;;;;;;;3.7;2;;;;;;;-3.63;58.34375;939.4708;;;;
2021/01/11 12:06:25;;;;;;;3.1;1.8;;;;;;;-3.41;58.31836;939.4211;;;;
2021/01/11 12:08:50;;;;;;;1.8;1.5;;;;;;;-3.25;57.92188;939.3699;;;;
2021/01/11 12:11:15;;;;;;;2.4;2;;;;;;;-3.1;57.90918;939.3094;;;;
2021/01/11 12:13:41;;;;;;;4.1;2.6;;;;;;;-3.12;57.93848;939.2263;;;;
2021/01/11 12:16:05;;;;;;;4.6;2;;;;;;;-2.99;57.1377;939.1975;;;;
2021/01/11 12:18:30;;;;;;;5.4;2.3;;;;;;;-2.87;57.04492;939.0687;;;;
2021/01/11 12:20:55;;;;;;;3.3;1.6;;;;;;;-2.84;57.26953;939.1392;;;;
2021/01/11 12:23:20;;;;;;;1.9;1.5;;;;;;;-2.79;57.63086;939.1188;;;;
2021/01/11 12:25:46;;;;;;;4.2;1.8;;;;;;;-2.58;57.23926;939.0928;;;;
2021/01/11 12:28:11;;;;;;;3.2;2.1;;;;;;;-2.5;55.96387;939.0209;;;;
2021/01/11 12:30:36;;;;;;;3.5;2.2;;;;;;;-2.53;56.01563;939.122;;;;
2021/01/11 12:33:02;;;;;;;5.8;2.9;;;;;;;-2.68;57.52441;939.0806;;;;
2021/01/11 12:35:27;;;;;;;2.4;1.5;;;;;;;-2.66;57.2832;939.1379;;;;
2021/01/11 12:37:52;;;;;;;3.9;2.5;;;;;;;-2.69;58.10938;939.128;;;;
2021/01/11 12:40:17;;;;;;;3.6;2.4;;;;;;;-2.61;56.96777;939.1178;;;;
2021/01/11 12:42:42;;;;;;;6.1;2.1;;;;;;;-2.61;58.1416;939.2076;;;;
2021/01/11 12:45:08;;;;;;;3.9;2.6;;;;;;;-2.58;58.08008;939.1178;;;;
2021/01/11 12:47:33;;;;;;;6.9;2.8;;;;;;;-2.34;57.47168;939.1113;;;;
2021/01/11 12:49:59;;;;;;;1.4;1.2;;;;;;;-2.4;57.27441;939.1288;;;;
2021/01/11 12:52:25;;;;;;;2.3;2;;;;;;;-2.45;56.92383;939.1262;;;;
2021/01/11 12:54:50;;;;;;;1.7;1.3;;;;;;;-2.47;56.1582;939.0614;;;;
2021/01/11 12:57:15;;;;;;;2.2;1.8;;;;;;;-2.4;56.07813;939.0967;;;;
2021/01/11 12:59:40;;;;;;;1.6;1.3;;;;;;;-2.45;56.53613;939.1044;;;;
2021/01/11 13:02:05;;;;;;;2.9;1.8;;;;;;;-2.42;56.2959;939.1339;;;;
2021/01/11 13:04:31;;;;;;;3.3;2.3;;;;;;;-2.24;55.77734;939.1152;;;;
2021/01/11 13:06:55;;;;;;;2.6;2;;;;;;;-2.01;56.71777;939.1124;;;;
2021/01/11 13:09:21;;;;;;;10.4;2.1;;;;;;;-2.36;57.83496;939.0695;;;;
2021/01/11 13:11:46;;;;;;;3;1.8;;;;;;;-2.82;59.48633;939.1108;;;;
2021/01/11 13:14:16;;;;;;;2.8;2.1;;;;;;;-2.74;60.81348;939.1331;;;;
2021/01/11 13:16:36;;;;;;;5.7;2.6;;;;;;;-2.7;60.80859;939.0441;;;;
2021/01/11 13:19:01;;;;;;;2.7;2;;;;;;;-2.42;60.78223;939.0918;;;;
2021/01/11 13:21:26;;;;;;;2.4;1.6;;;;;;;-2.75;60.91211;939.1403;;;;
2021/01/11 13:23:51;;;;;;;4.7;2.2;;;;;;;-2.57;60.97168;939.12;;;;
2021/01/11 13:26:16;;;;;;;7.5;2.8;;;;;;;-2.19;60.38379;939.0773;;;;
2021/01/11 13:28:43;;;;;;;4.4;2.6;;;;;;;-2.01;59.7793;939.0316;;;;
2021/01/11 13:31:07;;;;;;;4.2;3.1;;;;;;;-1.96;59.22949;939.0389;;;;
2021/01/11 13:33:31;;;;;;;3.2;2.4;;;;;;;-1.97;58.70703;939.0863;;;;
2021/01/11 13:35:57;;;;;;;5.8;3.2;;;;;;;-2.19;59.35449;939.0298;;;;
2021/01/11 13:38:24;;;;;;;4.5;2.8;;;;;;;-1.8;59.30859;939.0637;;;;
2021/01/11 13:40:47;;;;;;;3.3;2.3;;;;;;;-1.49;58.1748;939.0081;;;;
2021/01/11 13:43:12;;;;;;;4.3;2.9;;;;;;;-0.48;55.67773;939.0008;;;;
2021/01/11 13:45:37;;;;;;;11.6;3.8;;;;;;;0.57;51.93555;938.9738;;;;
2021/01/11 13:48:02;;;;;;;5.6;3.6;;;;;;;1.38;49.9668;939.0338;;;;
2021/01/11 13:50:27;;;;;;;9.3;3.5;;;;;;;2.4;46.97363;938.9604;;;;
2021/01/11 13:52:52;;;;;;;8.1;3.5;;;;;;;3.43;45.05469;938.9832;;;;
2021/01/11 13:55:17;;;;;;;4.3;2.9;;;;;;;4.37;42.75781;938.9625;;;;
2021/01/11 13:57:42;;;;;;;5;1.9;;;;;;;5.88;39.21484;938.9986;;;;
2021/01/11 14:00:07;;;;;;;2.5;1.5;;;;;;;6.43;37.9082;938.9717;;;;
2021/01/11 14:02:33;;;;;;;2;1.4;;;;;;;6.79;36.87598;938.9976;;;;
2021/01/11 14:04:58;;;;;;;3.5;2.1;;;;;;;6.79;36.95508;939.0134;;;;
2021/01/11 14:07:25;;;;;;;2.1;1.5;;;;;;;6.33;37.45801;939.0321;;;;
2021/01/11 14:09:48;;;;;;;2.8;1.9;;;;;;;5.84;37.98047;939.0289;;;;
2021/01/11 14:12:14;;;;;;;2.7;1.5;;;;;;;5.83;37.75293;938.9955;;;;